Time;durP1;ratioP1;P1;durP2;ratioP2;P2;SDS_P1;SDS_P2;PMS_P1;PMS_P2;Temp;Humidity;BMP_temperature;BMP_pressure;BME280_temperature;BME280_humidity;BME280_pressure;Samples;Min_cycle;Max_cycle;Signal;HPM_P1;HPM_P2
2023/12/16 00:01:22;;;;;;;;;;;;;;;11.33;50.74;102685.41;4977393;27;99500;-66
2023/12/16 00:03:48;;;;;;;;;;;;;;;11.34;50.80;102688.94;4957216;28;124546;-70
2023/12/16 00:06:15;;;;;;;;;;;;;;;11.33;50.94;102680.00;4956374;28;100496;-66
2023/12/16 00:08:41;;;;;;;;;;;;;;;11.35;50.68;102677.06;4942649;28;98981;-70
2023/12/16 00:11:08;;;;;;;;;;;;;;;11.34;50.96;102684.34;4951811;27;98815;-65
2023/12/16 00:13:35;;;;;;;;;;;;;;;11.33;50.78;102690.81;4946383;28;98617;-68
2023/12/16 00:16:01;;;;;;;;;;;;;;;11.34;50.77;102692.47;4927291;28;98492;-70
2023/12/16 00:18:28;;;;;;;;;;;;;;;11.33;51.03;102693.50;4926170;28;121153;-70
2023/12/16 00:20:54;;;;;;;;;;;;;;;11.34;50.93;102699.72;4936385;28;98528;-70
2023/12/16 00:23:20;;;;;;;;;;;;;;;11.33;50.87;102701.59;4934498;27;98244;-70
2023/12/16 00:25:46;;;;;;;;;;;;;;;11.32;50.77;102708.06;4958896;28;100150;-70
2023/12/16 00:28:11;;;;;;;;;;;;;;;11.30;50.66;102710.13;4930196;28;99040;-65
2023/12/16 00:30:38;;;;;;;;;;;;;;;11.28;50.84;102704.97;4948365;28;98454;-70
2023/12/16 00:33:04;;;;;;;;;;;;;;;11.27;50.86;102689.78;4926787;28;98078;-70
2023/12/16 00:35:30;;;;;;;;;;;;;;;11.25;50.76;102689.19;4939146;27;98018;-66
2023/12/16 00:37:55;;;;;;;;;;;;;;;11.24;50.73;102684.03;4955137;28;122007;-70
2023/12/16 00:40:21;;;;;;;;;;;;;;;11.23;50.95;102691.28;4925639;28;120728;-65
2023/12/16 00:42:47;;;;;;;;;;;;;;;11.22;50.75;102696.91;4941363;28;126450;-70
2023/12/16 00:45:13;;;;;;;;;;;;;;;11.19;51.02;102692.75;4942000;28;98051;-65
2023/12/16 00:47:39;;;;;;;;;;;;;;;11.20;50.72;102693.59;4922254;28;99470;-70
2023/12/16 00:50:08;;;;;;;;;;;;;;;11.20;50.90;102699.84;4936996;28;98538;-66
2023/12/16 00:52:34;;;;;;;;;;;;;;;11.18;50.88;102699.22;4930087;28;97987;-69
2023/12/16 00:55:00;;;;;;;;;;;;;;;11.18;50.89;102701.91;4955127;28;99680;-67
2023/12/16 00:57:26;;;;;;;;;;;;;;;11.17;51.06;102699.44;4955527;28;124891;-69
2023/12/16 00:59:52;;;;;;;;;;;;;;;11.18;50.93;102701.09;4959890;28;98601;-70
2023/12/16 01:02:18;;;;;;;;;;;;;;;11.17;51.01;102691.34;4902889;28;127199;-66
2023/12/16 01:04:44;;;;;;;;;;;;;;;11.17;50.91;102694.03;4921178;28;98095;-65
2023/12/16 01:07:10;;;;;;;;;;;;;;;11.16;50.64;102695.91;4924290;28;99469;-70
2023/12/16 01:09:36;;;;;;;;;;;;;;;11.16;50.92;102704.00;4928400;28;98279;-69
2023/12/16 01:12:02;;;;;;;;;;;;;;;11.16;51.03;102700.47;4923493;28;120299;-69
2023/12/16 01:14:28;;;;;;;;;;;;;;;11.15;50.79;102699.63;4924792;28;98396;-69
2023/12/16 01:16:54;;;;;;;;;;;;;;;11.16;50.79;102704.00;4941012;28;122139;-70
2023/12/16 01:19:20;;;;;;;;;;;;;;;11.16;50.80;102708.56;4963128;28;104782;-65
2023/12/16 01:21:46;;;;;;;;;;;;;;;11.16;50.81;102724.75;4935198;28;114851;-70
2023/12/16 01:24:13;;;;;;;;;;;;;;;11.16;50.69;102722.06;4926261;28;105831;-70
2023/12/16 01:26:39;;;;;;;;;;;;;;;11.15;50.84;102725.81;4948723;28;98206;-69
2023/12/16 01:29:05;;;;;;;;;;;;;;;11.16;50.76;102727.44;4941856;28;99230;-66
2023/12/16 01:31:30;;;;;;;;;;;;;;;11.16;50.93;102730.16;4940679;28;126856;-65
2023/12/16 01:33:56;;;;;;;;;;;;;;;11.16;50.95;102727.44;4919291;28;128881;-65
2023/12/16 01:36:22;;;;;;;;;;;;;;;11.15;50.73;102729.34;4971349;27;107684;-70
2023/12/16 01:38:48;;;;;;;;;;;;;;;11.14;50.77;102716.06;4937411;28;98096;-66
2023/12/16 01:41:15;;;;;;;;;;;;;;;11.16;50.93;102725.59;4940109;28;98823;-65
2023/12/16 01:43:41;;;;;;;;;;;;;;;11.16;50.69;102720.22;4932733;28;100010;-69
2023/12/16 01:46:07;;;;;;;;;;;;;;;11.16;50.99;102719.34;4940622;28;98263;-70
2023/12/16 01:48:34;;;;;;;;;;;;;;;11.13;50.79;102711.72;4973971;27;98508;-71
2023/12/16 01:51:00;;;;;;;;;;;;;;;11.15;50.78;102715.84;4952601;28;99103;-65
2023/12/16 01:53:27;;;;;;;;;;;;;;;11.15;50.81;102721.22;4955653;28;100213;-65
2023/12/16 01:55:53;;;;;;;;;;;;;;;11.15;50.80;102715.84;4936589;28;97968;-70
2023/12/16 01:58:20;;;;;;;;;;;;;;;11.15;50.63;102723.94;4962147;28;98083;-70
2023/12/16 02:00:47;;;;;;;;;;;;;;;11.17;50.62;102718.34;4953906;27;98001;-70
2023/12/16 02:03:14;;;;;;;;;;;;;;;11.16;50.92;102720.22;4942764;28;97873;-70
2023/12/16 02:05:41;;;;;;;;;;;;;;;11.17;50.85;102723.72;4931959;28;98258;-66
2023/12/16 02:08:07;;;;;;;;;;;;;;;11.17;50.66;102721.84;4942537;28;98322;-70
2023/12/16 02:10:33;;;;;;;;;;;;;;;11.17;50.86;102727.25;4973250;27;98157;-70
2023/12/16 02:13:02;;;;;;;;;;;;;;;11.17;50.83;102731.84;4936442;28;97890;-70
2023/12/16 02:15:28;;;;;;;;;;;;;;;11.17;51.04;102729.97;4943047;28;98901;-70
2023/12/16 02:17:54;;;;;;;;;;;;;;;11.17;50.96;102735.34;4934998;28;99818;-66
2023/12/16 02:20:20;;;;;;;;;;;;;;;11.16;50.83;102725.59;4961918;28;98326;-70
2023/12/16 02:22:47;;;;;;;;;;;;;;;11.18;50.84;102730.78;4945322;28;100444;-70
2023/12/16 02:25:13;;;;;;;;;;;;;;;11.17;50.67;102729.13;4917341;28;99339;-66
2023/12/16 02:27:44;;;;;;;;;;;;;;;11.17;50.60;102729.97;4936936;28;101825;-67
2023/12/16 02:30:11;;;;;;;;;;;;;;;11.18;50.59;102728.09;4946591;28;98065;-69
2023/12/16 02:32:37;;;;;;;;;;;;;;;11.17;50.88;102724.56;4946796;28;99328;-69
2023/12/16 02:35:03;;;;;;;;;;;;;;;11.18;50.68;102725.38;4944197;28;99062;-70
2023/12/16 02:37:32;;;;;;;;;;;;;;;11.18;50.83;102722.69;4961279;28;98203;-70
2023/12/16 02:39:58;;;;;;;;;;;;;;;11.18;50.94;102728.09;4926658;28;101705;-65
2023/12/16 02:42:24;;;;;;;;;;;;;;;11.18;50.83;102733.47;4929250;28;99927;-70
2023/12/16 02:44:50;;;;;;;;;;;;;;;11.18;50.79;102733.47;4967883;27;98521;-66
2023/12/16 02:47:16;;;;;;;;;;;;;;;11.17;50.82;102740.75;4959430;28;98628;-65
2023/12/16 02:49:44;;;;;;;;;;;;;;;11.18;50.62;102744.28;4923685;28;99341;-69
2023/12/16 02:52:10;;;;;;;;;;;;;;;11.17;50.69;102735.34;4941099;28;97994;-70
2023/12/16 02:54:36;;;;;;;;;;;;;;;11.15;50.95;102740.13;4941292;28;98612;-70
2023/12/16 02:57:02;;;;;;;;;;;;;;;11.16;50.71;102744.50;4950040;28;98454;-65
2023/12/16 02:59:29;;;;;;;;;;;;;;;11.16;50.84;102743.66;4940458;28;98383;-69
2023/12/16 03:01:55;;;;;;;;;;;;;;;11.16;50.84;102752.59;4939146;28;102495;-66
2023/12/16 03:04:21;;;;;;;;;;;;;;;11.16;50.55;102752.59;4959033;28;98541;-70
2023/12/16 03:06:47;;;;;;;;;;;;;;;11.17;50.86;102756.94;4927714;28;98733;-67
2023/12/16 03:09:13;;;;;;;;;;;;;;;11.16;50.78;102768.81;4927802;28;99401;-70
2023/12/16 03:11:39;;;;;;;;;;;;;;;11.17;50.86;102766.94;4940670;28;99961;-65
2023/12/16 03:14:05;;;;;;;;;;;;;;;11.17;50.78;102765.06;4960638;28;98286;-66
2023/12/16 03:16:33;;;;;;;;;;;;;;;11.25;51.04;102766.66;4966666;27;98275;-69
2023/12/16 03:18:59;;;;;;;;;;;;;;;11.31;50.83;102773.88;4948271;28;99725;-66
2023/12/16 03:21:25;;;;;;;;;;;;;;;11.38;50.83;102768.47;4960242;27;98173;-70
2023/12/16 03:23:51;;;;;;;;;;;;;;;11.43;50.87;102765.94;4976832;27;99076;-66
2023/12/16 03:26:19;;;;;;;;;;;;;;;11.47;50.77;102759.03;4950143;27;98149;-66
2023/12/16 03:28:45;;;;;;;;;;;;;;;11.51;50.96;102757.56;4956741;27;98689;-66
2023/12/16 03:31:12;;;;;;;;;;;;;;;11.53;50.77;102756.31;4947203;28;98042;-70
2023/12/16 03:33:38;;;;;;;;;;;;;;;11.55;50.86;102753.38;4959611;27;98455;-70
2023/12/16 03:36:07;;;;;;;;;;;;;;;11.57;50.96;102761.28;4944591;28;98189;-70
2023/12/16 03:38:33;;;;;;;;;;;;;;;11.59;50.99;102753.78;4963778;27;98142;-65
2023/12/16 03:40:59;;;;;;;;;;;;;;;11.60;50.92;102755.44;4957553;27;124876;-69
2023/12/16 03:43:24;;;;;;;;;;;;;;;11.60;50.76;102750.03;4980885;27;117056;-66
2023/12/16 03:45:50;;;;;;;;;;;;;;;11.61;50.83;102738.19;4976599;27;119672;-70
2023/12/16 03:48:17;;;;;;;;;;;;;;;11.60;50.83;102748.16;4972978;27;98532;-66
2023/12/16 03:50:43;;;;;;;;;;;;;;;11.62;50.96;102753.34;4959476;28;98344;-66
2023/12/16 03:53:09;;;;;;;;;;;;;;;11.62;50.84;102756.03;4948212;27;99382;-70
2023/12/16 03:55:35;;;;;;;;;;;;;;;11.61;50.94;102757.09;4949081;27;118654;-69
2023/12/16 03:58:01;;;;;;;;;;;;;;;11.61;50.96;102757.91;4977124;27;99614;-65
2023/12/16 04:00:27;;;;;;;;;;;;;;;11.59;50.82;102760.00;4967140;27;117194;-70
2023/12/16 04:02:53;;;;;;;;;;;;;;;11.60;50.82;102767.06;4960714;28;99499;-69
2023/12/16 04:05:19;;;;;;;;;;;;;;;11.59;51.07;102760.00;4957409;27;115399;-66
2023/12/16 04:07:45;;;;;;;;;;;;;;;11.59;50.96;102767.28;4970080;27;98300;-66
2023/12/16 04:10:11;;;;;;;;;;;;;;;11.59;50.83;102768.09;4959809;28;128470;-69
2023/12/16 04:12:37;;;;;;;;;;;;;;;11.58;50.59;102768.31;4944135;28;125995;-70
2023/12/16 04:15:03;;;;;;;;;;;;;;;11.59;50.94;102761.88;4956692;28;98638;-66
2023/12/16 04:17:29;;;;;;;;;;;;;;;11.56;50.99;102771.25;4962914;27;99963;-68
2023/12/16 04:19:55;;;;;;;;;;;;;;;11.57;50.92;102763.97;4925157;28;98179;-66
2023/12/16 04:22:22;;;;;;;;;;;;;;;11.55;50.80;102775.84;4977048;27;98057;-66
2023/12/16 04:24:50;;;;;;;;;;;;;;;11.55;50.92;102780.38;4979150;27;102292;-65
2023/12/16 04:27:16;;;;;;;;;;;;;;;11.55;51.00;102778.53;4957427;28;98221;-70
2023/12/16 04:29:42;;;;;;;;;;;;;;;11.55;50.96;102788.50;4957439;28;112896;-65
2023/12/16 04:32:08;;;;;;;;;;;;;;;11.54;50.97;102779.56;4938353;28;99864;-66
2023/12/16 04:34:34;;;;;;;;;;;;;;;11.53;50.92;102783.31;4967969;27;98884;-70
2023/12/16 04:37:00;;;;;;;;;;;;;;;11.54;50.87;102792.25;4955966;28;99488;-65
2023/12/16 04:39:26;;;;;;;;;;;;;;;11.53;51.03;102787.91;4943421;27;97999;-65
2023/12/16 04:41:52;;;;;;;;;;;;;;;11.51;50.89;102787.28;4928685;28;99489;-65
2023/12/16 04:44:18;;;;;;;;;;;;;;;11.52;50.96;102784.38;4956029;27;99395;-65
2023/12/16 04:46:44;;;;;;;;;;;;;;;11.53;50.81;102796.00;4949147;28;98059;-69
2023/12/16 04:49:09;;;;;;;;;;;;;;;11.52;50.87;102794.34;4957874;27;105939;-69
2023/12/16 04:51:36;;;;;;;;;;;;;;;11.51;50.91;102789.97;4977483;27;121283;-69
2023/12/16 04:54:02;;;;;;;;;;;;;;;11.51;50.95;102787.28;4939961;27;99754;-69
2023/12/16 04:56:28;;;;;;;;;;;;;;;11.51;51.03;102792.66;4974647;27;116725;-65
2023/12/16 04:58:54;;;;;;;;;;;;;;;11.50;50.96;102802.66;4976554;27;99643;-66
2023/12/16 05:01:20;;;;;;;;;;;;;;;11.51;50.95;102787.28;4963118;27;108929;-65
2023/12/16 05:03:47;;;;;;;;;;;;;;;11.50;50.79;102791.03;4959628;28;114382;-69
2023/12/16 05:06:13;;;;;;;;;;;;;;;11.49;50.98;102790.19;4957388;28;98371;-65
2023/12/16 05:08:39;;;;;;;;;;;;;;;11.50;51.00;102796.44;4956790;28;115006;-65
2023/12/16 05:11:05;;;;;;;;;;;;;;;11.49;50.88;102792.91;4965970;27;98754;-65
2023/12/16 05:13:31;;;;;;;;;;;;;;;11.47;51.06;102786.88;4962472;27;98198;-71
2023/12/16 05:15:57;;;;;;;;;;;;;;;11.48;50.83;102799.34;4963824;27;100248;-64
2023/12/16 05:18:24;;;;;;;;;;;;;;;11.48;50.78;102785.84;4960239;27;99514;-65
2023/12/16 05:20:50;;;;;;;;;;;;;;;11.48;50.97;102774.22;4955734;28;98798;-67
2023/12/16 05:23:16;;;;;;;;;;;;;;;11.47;50.86;102762.56;4956294;27;98304;-67
2023/12/16 05:25:42;;;;;;;;;;;;;;;11.47;51.07;102765.28;4976529;27;99425;-70
2023/12/16 05:28:08;;;;;;;;;;;;;;;11.46;50.92;102762.78;4955019;27;98381;-66
2023/12/16 05:30:35;;;;;;;;;;;;;;;11.45;50.94;102770.06;4949064;28;98199;-70
2023/12/16 05:33:02;;;;;;;;;;;;;;;11.45;51.04;102763.84;4936656;28;98112;-70
2023/12/16 05:35:30;;;;;;;;;;;;;;;11.43;50.90;102760.53;4974719;27;98173;-69
2023/12/16 05:37:55;;;;;;;;;;;;;;;11.43;50.94;102768.63;4976074;27;97762;-69
2023/12/16 05:40:21;;;;;;;;;;;;;;;11.43;50.83;102772.16;4957408;27;126853;-69
2023/12/16 05:42:48;;;;;;;;;;;;;;;11.42;50.94;102762.41;4958657;27;98888;-65
2023/12/16 05:45:14;;;;;;;;;;;;;;;11.41;50.72;102774.25;4961329;28;98246;-69
2023/12/16 05:47:40;;;;;;;;;;;;;;;11.41;50.99;102770.72;4971537;27;98735;-69
2023/12/16 05:50:10;;;;;;;;;;;;;;;11.40;50.88;102769.91;4971560;27;99201;-69
2023/12/16 05:52:37;;;;;;;;;;;;;;;11.39;51.15;102768.22;4972951;27;98467;-70
2023/12/16 05:55:04;;;;;;;;;;;;;;;11.39;50.88;102765.53;4972989;27;98238;-69
2023/12/16 05:57:29;;;;;;;;;;;;;;;11.39;50.88;102767.41;4958753;27;99008;-69
2023/12/16 05:59:56;;;;;;;;;;;;;;;11.38;50.96;102763.88;4969614;27;127550;-65
2023/12/16 06:02:21;;;;;;;;;;;;;;;11.38;51.00;102763.06;4971713;27;103357;-69
2023/12/16 06:04:48;;;;;;;;;;;;;;;11.36;50.99;102770.53;4940543;28;126855;-66
2023/12/16 06:07:14;;;;;;;;;;;;;;;11.36;51.00;102771.38;4953765;27;99889;-69
2023/12/16 06:09:41;;;;;;;;;;;;;;;11.36;50.76;102778.63;4924391;28;99660;-70
2023/12/16 06:12:07;;;;;;;;;;;;;;;11.36;51.20;102781.34;4954844;27;99504;-70
2023/12/16 06:14:33;;;;;;;;;;;;;;;11.35;51.01;102795.88;4945346;28;98848;-69
2023/12/16 06:16:59;;;;;;;;;;;;;;;11.34;50.97;102803.16;4973297;27;98449;-69
2023/12/16 06:19:26;;;;;;;;;;;;;;;11.33;50.80;102814.19;4961636;27;98611;-69
2023/12/16 06:21:52;;;;;;;;;;;;;;;11.33;51.13;102828.53;4949246;28;98680;-70
2023/12/16 06:24:18;;;;;;;;;;;;;;;11.33;50.92;102831.22;4960679;27;127309;-70
2023/12/16 06:26:44;;;;;;;;;;;;;;;11.33;50.98;102839.31;4960670;28;98843;-69
2023/12/16 06:29:10;;;;;;;;;;;;;;;11.32;51.05;102843.06;4955985;27;99201;-65
2023/12/16 06:31:35;;;;;;;;;;;;;;;11.30;50.81;102837.88;4926400;28;118634;-69
2023/12/16 06:34:01;;;;;;;;;;;;;;;11.31;51.17;102836.00;4954720;27;126224;-70
2023/12/16 06:36:27;;;;;;;;;;;;;;;11.31;50.97;102844.91;4941199;27;126540;-65
2023/12/16 06:38:53;;;;;;;;;;;;;;;11.33;50.87;102841.19;4959260;28;113480;-66
2023/12/16 06:41:19;;;;;;;;;;;;;;;11.32;50.54;102834.97;4935323;28;101989;-69
2023/12/16 06:43:45;;;;;;;;;;;;;;;11.31;51.08;102839.50;4944683;27;98586;-69
2023/12/16 06:46:11;;;;;;;;;;;;;;;11.33;50.87;102836.63;4960168;27;109339;-69
2023/12/16 06:48:37;;;;;;;;;;;;;;;11.33;50.95;102830.41;4962729;27;98900;-69
2023/12/16 06:51:03;;;;;;;;;;;;;;;11.34;50.92;102832.03;4958533;27;98354;-65
2023/12/16 06:53:30;;;;;;;;;;;;;;;11.33;50.79;102825.81;4972100;27;98122;-66
2023/12/16 06:55:56;;;;;;;;;;;;;;;11.34;50.87;102827.47;4960151;28;99752;-65
2023/12/16 06:58:22;;;;;;;;;;;;;;;11.34;50.99;102819.38;4961986;27;113418;-69
2023/12/16 07:00:48;;;;;;;;;;;;;;;11.35;50.89;102841.78;4946937;27;105411;-65
2023/12/16 07:03:14;;;;;;;;;;;;;;;11.36;50.93;102855.09;4959023;28;98933;-65
2023/12/16 07:05:40;;;;;;;;;;;;;;;11.36;50.83;102867.75;4930446;28;99936;-69
2023/12/16 07:08:06;;;;;;;;;;;;;;;11.37;50.83;102872.13;4958200;27;98998;-69
2023/12/16 07:10:32;;;;;;;;;;;;;;;11.37;50.88;102875.66;4963550;27;98332;-65
2023/12/16 07:12:59;;;;;;;;;;;;;;;11.38;50.98;102881.88;4939508;28;127791;-66
2023/12/16 07:15:25;;;;;;;;;;;;;;;11.39;51.09;102887.06;4971853;27;98456;-70
2023/12/16 07:17:51;;;;;;;;;;;;;;;11.40;51.22;102888.72;4962955;27;111715;-69
2023/12/16 07:20:17;;;;;;;;;;;;;;;11.41;50.98;102892.25;4945803;27;119313;-69
2023/12/16 07:22:43;;;;;;;;;;;;;;;11.42;50.87;102888.50;4941575;28;98192;-65
2023/12/16 07:25:09;;;;;;;;;;;;;;;11.42;50.87;102883.09;4956617;28;120444;-66
2023/12/16 07:27:35;;;;;;;;;;;;;;;11.42;50.67;102881.22;4963604;27;98051;-69
2023/12/16 07:30:00;;;;;;;;;;;;;;;11.43;50.94;102872.06;4955868;27;118245;-67
2023/12/16 07:32:27;;;;;;;;;;;;;;;11.44;50.88;102871.06;4939669;27;128236;-65
2023/12/16 07:34:53;;;;;;;;;;;;;;;11.47;51.01;102861.66;4955086;27;98162;-69
2023/12/16 07:37:19;;;;;;;;;;;;;;;11.49;50.79;102865.81;4969009;27;98748;-69
2023/12/16 07:39:46;;;;;;;;;;;;;;;11.52;50.73;102865.41;4961512;27;99257;-65
2023/12/16 07:42:13;;;;;;;;;;;;;;;11.57;50.76;102872.03;4944373;27;98560;-65
2023/12/16 07:44:39;;;;;;;;;;;;;;;11.58;50.70;102879.91;4924501;27;99555;-65
2023/12/16 07:47:05;;;;;;;;;;;;;;;11.60;50.70;102880.53;4944444;27;99403;-65
2023/12/16 07:49:31;;;;;;;;;;;;;;;11.61;50.96;102892.16;4962796;27;99536;-70
2023/12/16 07:51:57;;;;;;;;;;;;;;;11.60;50.71;102895.91;4963375;28;101887;-65
2023/12/16 07:54:27;;;;;;;;;;;;;;;11.61;50.80;102898.38;4940268;28;99628;-69
2023/12/16 07:56:54;;;;;;;;;;;;;;;11.62;50.86;102899.22;4936718;28;98023;-69
2023/12/16 07:59:20;;;;;;;;;;;;;;;11.63;50.77;102904.41;4961935;28;98383;-66
2023/12/16 08:01:53;;;;;;;;;;;;;;;11.63;50.70;102895.47;4955192;27;127754;-65
2023/12/16 08:04:19;;;;;;;;;;;;;;;11.64;50.78;102889.84;4957983;27;98483;-65
2023/12/16 08:06:45;;;;;;;;;;;;;;;11.66;50.91;102873.44;4932852;28;98222;-69
2023/12/16 08:09:13;;;;;;;;;;;;;;;11.67;50.70;102885.88;4939919;28;99474;-69
2023/12/16 08:11:39;;;;;;;;;;;;;;;11.69;50.61;102886.50;4953410;28;99414;-69
2023/12/16 08:14:06;;;;;;;;;;;;;;;11.71;50.82;102895.22;4953254;28;98928;-70
2023/12/16 08:16:32;;;;;;;;;;;;;;;11.71;50.71;102893.38;4957212;27;98153;-66
2023/12/16 08:18:58;;;;;;;;;;;;;;;11.73;50.79;102903.94;4961863;27;98169;-69
2023/12/16 08:21:24;;;;;;;;;;;;;;;11.74;50.60;102902.88;4941035;27;99703;-65
2023/12/16 08:23:50;;;;;;;;;;;;;;;11.75;50.62;102905.41;4941894;28;112442;-68
2023/12/16 08:26:16;;;;;;;;;;;;;;;11.77;50.83;102906.00;4937628;28;98315;-65
2023/12/16 08:28:42;;;;;;;;;;;;;;;11.79;50.82;102905.78;4942965;28;118233;-66
2023/12/16 08:31:08;;;;;;;;;;;;;;;11.80;50.96;102905.56;4934289;28;98792;-65
2023/12/16 08:33:35;;;;;;;;;;;;;;;11.83;50.74;102909.75;4945122;27;98190;-67
2023/12/16 08:36:01;;;;;;;;;;;;;;;11.86;50.58;102905.75;4958391;28;98271;-66
2023/12/16 08:38:28;;;;;;;;;;;;;;;11.87;50.74;102904.72;4959489;28;99209;-66
2023/12/16 08:40:57;;;;;;;;;;;;;;;11.89;50.73;102908.88;4975141;27;99674;-66
2023/12/16 08:43:23;;;;;;;;;;;;;;;11.92;50.63;102907.59;4961102;28;98124;-66
2023/12/16 08:45:50;;;;;;;;;;;;;;;11.94;50.72;102908.22;4966527;27;98141;-66
2023/12/16 08:48:16;;;;;;;;;;;;;;;11.96;50.58;102911.53;4955448;28;98118;-66
2023/12/16 08:50:42;;;;;;;;;;;;;;;11.97;50.75;102916.72;4961855;27;101836;-66
2023/12/16 08:53:10;;;;;;;;;;;;;;;11.98;50.62;102921.06;4944058;28;100412;-66
2023/12/16 08:55:36;;;;;;;;;;;;;;;12.02;50.65;102926.88;4973325;27;98206;-66
2023/12/16 08:58:02;;;;;;;;;;;;;;;12.04;50.75;102938.31;4957363;28;117026;-69
2023/12/16 09:00:29;;;;;;;;;;;;;;;12.04;50.80;102938.31;4945554;28;98087;-69
2023/12/16 09:02:55;;;;;;;;;;;;;;;12.07;50.72;102950.56;4958239;27;98558;-69
2023/12/16 09:05:21;;;;;;;;;;;;;;;12.07;50.63;102958.69;4957324;28;98546;-69
2023/12/16 09:07:47;;;;;;;;;;;;;;;12.08;50.85;102952.22;4956437;28;98476;-69
2023/12/16 09:10:13;;;;;;;;;;;;;;;12.09;50.56;102953.88;4939025;27;98393;-70
2023/12/16 09:12:39;;;;;;;;;;;;;;;12.10;50.80;102953.63;4945861;28;98045;-70
2023/12/16 09:15:06;;;;;;;;;;;;;;;12.11;50.63;102943.69;4956677;27;99937;-70
2023/12/16 09:17:32;;;;;;;;;;;;;;;12.12;50.48;102946.16;4955863;28;98376;-70
2023/12/16 09:19:58;;;;;;;;;;;;;;;12.13;50.62;102950.50;4940093;27;98455;-70
2023/12/16 09:22:24;;;;;;;;;;;;;;;12.15;50.76;102948.44;4942256;27;99692;-66
2023/12/16 09:24:50;;;;;;;;;;;;;;;12.17;50.42;102940.09;4939616;28;99523;-66
2023/12/16 09:27:17;;;;;;;;;;;;;;;12.19;50.74;102932.59;4952877;27;119470;-66
2023/12/16 09:29:43;;;;;;;;;;;;;;;12.21;50.83;102935.91;4975036;27;98487;-70
2023/12/16 09:32:09;;;;;;;;;;;;;;;12.23;50.49;102931.13;4943263;28;128485;-66
2023/12/16 09:34:35;;;;;;;;;;;;;;;12.27;50.53;102929.63;4960154;28;98202;-70
2023/12/16 09:37:01;;;;;;;;;;;;;;;12.29;50.44;102919.41;4938299;27;103248;-66
2023/12/16 09:39:27;;;;;;;;;;;;;;;12.32;50.62;102913.56;4956624;28;129837;-66
2023/12/16 09:41:56;;;;;;;;;;;;;;;12.36;50.39;102909.38;4958182;28;99635;-66
2023/12/16 09:44:22;;;;;;;;;;;;;;;12.40;50.62;102904.34;4953996;27;98427;-66
2023/12/16 09:46:48;;;;;;;;;;;;;;;12.44;50.64;102905.56;4944116;27;98472;-66
2023/12/16 09:49:14;;;;;;;;;;;;;;;12.48;50.63;102902.19;4941049;27;98555;-66
2023/12/16 09:51:43;;;;;;;;;;;;;;;12.52;50.25;102897.16;4943669;28;98794;-69
2023/12/16 09:54:09;;;;;;;;;;;;;;;12.57;50.59;102893.78;4956544;27;98800;-66
2023/12/16 09:56:36;;;;;;;;;;;;;;;12.62;50.33;102885.84;4959653;27;100068;-69
2023/12/16 09:59:03;;;;;;;;;;;;;;;12.67;50.42;102891.41;4954453;28;98785;-66
2023/12/16 10:01:29;;;;;;;;;;;;;;;12.72;50.57;102881.56;4941831;27;98129;-66
2023/12/16 10:03:55;;;;;;;;;;;;;;;12.79;50.51;102881.50;4968154;27;128040;-68
2023/12/16 10:06:21;;;;;;;;;;;;;;;12.86;50.27;102878.75;4950864;27;108942;-66
2023/12/16 10:08:47;;;;;;;;;;;;;;;12.93;50.19;102877.63;4958344;27;100127;-66
2023/12/16 10:11:13;;;;;;;;;;;;;;;13.03;50.42;102882.50;4940749;27;98107;-69
2023/12/16 10:13:59;;;;;;;;;;;;;;;13.12;50.12;102877.59;4961371;28;99154;-69
2023/12/16 10:16:25;;;;;;;;;;;;;;;13.22;50.03;102881.44;4941790;27;98165;-66
2023/12/16 10:18:55;;;;;;;;;;;;;;;13.32;50.10;102880.94;4941894;27;99238;-69
2023/12/16 10:21:31;;;;;;;;;;;;;;;13.39;49.80;102870.84;4941166;28;98996;-69
2023/12/16 10:24:01;;;;;;;;;;;;;;;13.47;49.91;102878.66;4955734;28;99905;-70
2023/12/16 10:26:31;;;;;;;;;;;;;;;13.49;49.86;102873.03;4957204;27;98250;-66
2023/12/16 10:28:57;;;;;;;;;;;;;;;13.48;50.13;102872.19;4956916;28;98679;-69
2023/12/16 10:31:24;;;;;;;;;;;;;;;13.47;50.07;102873.22;4940224;28;110045;-69
2023/12/16 10:33:51;;;;;;;;;;;;;;;13.46;50.12;102871.59;4957304;28;98118;-69
2023/12/16 10:36:17;;;;;;;;;;;;;;;13.44;50.05;102881.84;4917185;28;98792;-66
2023/12/16 10:38:43;;;;;;;;;;;;;;;13.45;50.74;102886.19;4938823;28;99744;-66
2023/12/16 10:41:09;;;;;;;;;;;;;;;13.44;50.10;102873.72;4924497;28;129890;-69
2023/12/16 10:43:35;;;;;;;;;;;;;;;13.45;50.12;102869.13;4957869;27;98279;-66
2023/12/16 10:46:04;;;;;;;;;;;;;;;13.47;50.44;102853.44;4939902;28;98306;-69
2023/12/16 10:48:34;;;;;;;;;;;;;;;13.48;50.00;102855.13;4936996;27;99871;-69
2023/12/16 10:51:04;;;;;;;;;;;;;;;13.51;50.27;102854.63;4940721;28;98458;-67
2023/12/16 10:53:44;;;;;;;;;;;;;;;13.53;50.04;102849.00;4958427;27;98485;-69
2023/12/16 10:56:37;;;;;;;;;;;;;;;13.57;50.42;102839.38;4924877;28;98865;-69
2023/12/16 10:59:12;;;;;;;;;;;;;;;13.59;50.07;102823.69;4957867;27;98353;-67
2023/12/16 11:01:41;;;;;;;;;;;;;;;13.61;50.29;102832.44;4945691;27;99085;-70
2023/12/16 11:04:17;;;;;;;;;;;;;;;13.64;49.96;102816.53;4958296;28;98775;-70
2023/12/16 11:06:51;;;;;;;;;;;;;;;13.71;50.41;102824.53;4955782;28;98374;-70
2023/12/16 11:09:17;;;;;;;;;;;;;;;13.76;50.18;102819.28;4950737;27;98257;-66
2023/12/16 11:11:43;;;;;;;;;;;;;;;13.82;49.94;102812.09;4960843;27;101587;-65
2023/12/16 11:14:09;;;;;;;;;;;;;;;13.89;49.83;102801.97;4941619;28;98554;-70
2023/12/16 11:16:57;;;;;;;;;;;;;;;14.06;49.75;102802.94;4927315;28;100048;-66
2023/12/16 11:19:25;;;;;;;;;;;;;;;14.31;49.84;102793.75;4940474;28;98448;-66
2023/12/16 11:21:51;;;;;;;;;;;;;;;14.39;49.81;102788.81;4926252;28;110657;-70
2023/12/16 11:24:17;;;;;;;;;;;;;;;14.40;49.69;102789.63;4942658;28;107533;-66
2023/12/16 11:26:48;;;;;;;;;;;;;;;14.37;50.11;102790.91;4924370;28;98732;-70
2023/12/16 11:29:14;;;;;;;;;;;;;;;14.32;50.00;102779.13;4938397;28;98906;-66
2023/12/16 11:31:40;;;;;;;;;;;;;;;14.31;50.14;102786.44;4921696;28;127892;-66
2023/12/16 11:34:06;;;;;;;;;;;;;;;14.33;50.28;102784.31;4928197;28;98527;-66
2023/12/16 11:36:49;;;;;;;;;;;;;;;14.36;49.83;102783.03;4938526;28;98529;-66
2023/12/16 11:39:34;;;;;;;;;;;;;;;14.38;49.89;102776.31;4944392;28;98274;-66
2023/12/16 11:42:00;;;;;;;;;;;;;;;14.37;50.16;102776.53;4940623;28;98625;-70
2023/12/16 11:44:52;;;;;;;;;;;;;;;14.39;50.28;102777.13;4944376;28;98197;-66
2023/12/16 11:47:24;;;;;;;;;;;;;;;14.42;49.97;102771.19;4961241;28;98372;-66
2023/12/16 11:49:54;;;;;;;;;;;;;;;14.41;49.82;102764.13;4926315;28;99675;-70
2023/12/16 11:52:22;;;;;;;;;;;;;;;14.40;50.04;102755.16;4928573;28;98170;-66
2023/12/16 11:54:57;;;;;;;;;;;;;;;14.37;50.31;102762.97;4940345;28;99084;-66
2023/12/16 11:57:24;;;;;;;;;;;;;;;14.37;50.22;102765.66;4944567;28;98214;-66
2023/12/16 11:59:51;;;;;;;;;;;;;;;14.37;50.22;102765.66;4923395;28;98378;-66
2023/12/16 12:02:17;;;;;;;;;;;;;;;14.35;50.08;102752.34;4924493;28;98515;-66
2023/12/16 12:04:43;;;;;;;;;;;;;;;14.35;50.32;102763.19;4935928;28;98866;-70
2023/12/16 12:07:09;;;;;;;;;;;;;;;14.33;49.95;102756.34;4944076;28;98412;-66
2023/12/16 12:09:39;;;;;;;;;;;;;;;14.31;50.15;102761.22;4921921;28;98205;-66
2023/12/16 12:12:05;;;;;;;;;;;;;;;14.29;50.58;102763.31;4925435;28;98119;-66
2023/12/16 12:14:31;;;;;;;;;;;;;;;14.28;50.28;102758.97;4933035;28;116161;-66
2023/12/16 12:16:58;;;;;;;;;;;;;;;14.24;50.46;102756.72;4923322;28;97919;-66
2023/12/16 12:19:24;;;;;;;;;;;;;;;14.22;50.50;102758.00;4954707;28;99573;-66
2023/12/16 12:21:51;;;;;;;;;;;;;;;14.21;50.17;102757.19;4903258;28;121508;-66
2023/12/16 12:24:17;;;;;;;;;;;;;;;14.20;50.49;102760.97;4943262;28;99993;-66
2023/12/16 12:26:43;;;;;;;;;;;;;;;14.20;50.28;102760.16;4926544;28;98356;-70
2023/12/16 12:29:09;;;;;;;;;;;;;;;14.18;50.49;102752.22;4937682;28;103575;-66
2023/12/16 12:31:43;;;;;;;;;;;;;;;14.16;50.42;102748.94;4925659;28;105470;-66